Roland, Oklahoma
Current Conditions -  °F | °C
As of 6:53 PM on Monday 22 Dec 2014 (Local Time) from KFSM Reporting Station
Few Clouds Few Clouds  
Wind Chill: 51°   Ceiling: Unl
Heat Index: 51°   Visibility: 10mi
Dew Point: 47°   Wind: 5mph
Humidity: 86%   Direction: 220°SW
Pressure: 29.62"   Gusts: NA
Location:  35.42°N, 94.51°W
Report Text: KFSM 230053Z 22004KT 10SM FEW046 11/08 A2962 RMK AO2 SLP031 T01060083
Loading
Personal Weather Stations






























Interactive Weather Map New forecast layout! Learn more

10-Day Weather Forecast

Advertisements
Track Severe Weather on mobile